createdAt,value
2022-11-22T00:00:08.890Z,0.29
2022-11-22T00:02:35.984Z,0.30
2022-11-22T00:05:03.574Z,0.32
2022-11-22T00:07:30.364Z,0.33
2022-11-22T00:09:57.063Z,0.33
2022-11-22T00:12:23.830Z,0.28
2022-11-22T00:14:55.446Z,0.24
2022-11-22T00:17:23.378Z,0.21
2022-11-22T00:19:49.958Z,0.15
2022-11-22T00:22:16.567Z,0.07
2022-11-22T00:24:44.151Z,0.04
2022-11-22T00:27:10.771Z,0.04
2022-11-22T00:29:37.445Z,-0.01
2022-11-22T00:32:04.482Z,-0.01
2022-11-22T00:34:31.099Z,-0.01
2022-11-22T00:37:01.020Z,-0.03
2022-11-22T00:39:28.034Z,-0.02
2022-11-22T00:41:54.857Z,-0.02
2022-11-22T00:44:21.533Z,-0.01
2022-11-22T00:46:48.258Z,-0.02
2022-11-22T00:49:14.967Z,-0.05
2022-11-22T00:51:41.650Z,-0.11
2022-11-22T00:54:08.500Z,-0.05
2022-11-22T00:56:35.737Z,-0.06
2022-11-22T00:59:02.381Z,-0.03
2022-11-22T01:01:29.124Z,-0.01
2022-11-22T01:03:55.795Z,-0.09
2022-11-22T01:06:22.612Z,-0.20
2022-11-22T01:08:49.443Z,-0.15
2022-11-22T01:11:19.026Z,-0.13
2022-11-22T01:13:45.678Z,-0.10
2022-11-22T01:16:13.258Z,-0.10
2022-11-22T01:18:40.523Z,-0.06
2022-11-22T01:21:07.327Z,-0.03
2022-11-22T01:23:35.227Z,-0.05
2022-11-22T01:26:02.494Z,-0.01
2022-11-22T01:28:29.444Z,0.08
2022-11-22T01:30:56.060Z,0.07
2022-11-22T01:33:23.389Z,-0.10
2022-11-22T01:35:50.072Z,-0.02
2022-11-22T01:38:17.060Z,-0.01
2022-11-22T01:40:43.731Z,0.05
2022-11-22T01:43:18.198Z,0.08
2022-11-22T01:45:47.612Z,0.06
2022-11-22T01:48:18.974Z,0.05
2022-11-22T01:50:49.238Z,-0.03
2022-11-22T01:53:22.324Z,-0.02
2022-11-22T01:55:51.252Z,0.02
2022-11-22T01:58:19.600Z,0.03
2022-11-22T02:00:46.727Z,-0.17
2022-11-22T02:03:17.218Z,-0.04
2022-11-22T02:05:43.997Z,-0.02
2022-11-22T02:08:15.534Z,0.02
2022-11-22T02:10:47.878Z,-0.15
2022-11-22T02:13:16.048Z,-0.18
2022-11-22T02:15:43.051Z,-0.14
2022-11-22T02:18:10.294Z,-0.11
2022-11-22T02:20:39.428Z,-0.15
2022-11-22T02:23:07.126Z,-0.18
2022-11-22T02:25:53.441Z,-0.15
2022-11-22T02:28:20.065Z,-0.18
2022-11-22T02:30:46.787Z,-0.18
2022-11-22T02:33:13.523Z,-0.18
2022-11-22T02:35:41.735Z,-0.20
2022-11-22T02:38:12.502Z,-0.29
2022-11-22T02:40:45.443Z,-0.27
2022-11-22T02:43:17.238Z,-0.27
2022-11-22T02:45:44.089Z,-0.23
2022-11-22T02:48:13.883Z,-0.20
2022-11-22T02:50:40.502Z,-0.21
2022-11-22T02:53:08.526Z,-0.18
2022-11-22T02:55:35.833Z,-0.25
2022-11-22T02:58:03.442Z,-0.41
2022-11-22T03:00:30.143Z,-0.37
2022-11-22T03:02:56.758Z,-0.37
2022-11-22T03:05:23.395Z,-0.43
2022-11-22T03:07:50.904Z,-0.46
2022-11-22T03:10:17.928Z,-0.41
2022-11-22T03:12:44.606Z,-0.29
2022-11-22T03:15:11.595Z,-0.23
2022-11-22T03:17:38.420Z,-0.23
2022-11-22T03:20:05.686Z,-0.31
2022-11-22T03:22:32.395Z,-0.27
2022-11-22T03:24:59.000Z,-0.23
2022-11-22T03:27:25.621Z,-0.33
2022-11-22T03:29:52.261Z,-0.37
2022-11-22T03:32:18.857Z,-0.39
2022-11-22T03:34:45.520Z,-0.44
2022-11-22T03:37:12.187Z,-0.52
2022-11-22T03:39:38.775Z,-0.50
2022-11-22T03:42:05.471Z,-0.53
2022-11-22T03:44:32.111Z,-0.53
2022-11-22T03:46:58.813Z,-0.45
2022-11-22T03:49:25.403Z,-0.45
2022-11-22T03:51:51.973Z,-0.49
2022-11-22T03:54:18.574Z,-0.54
2022-11-22T03:56:45.181Z,-0.54
2022-11-22T03:59:11.795Z,-0.47
2022-11-22T04:01:38.424Z,-0.48
2022-11-22T04:04:05.275Z,-0.35
2022-11-22T04:06:32.087Z,-0.31
2022-11-22T04:08:58.764Z,-0.28
2022-11-22T04:11:25.464Z,-0.29
2022-11-22T04:14:07.247Z,-0.24
2022-11-22T04:16:33.887Z,-0.19
2022-11-22T04:19:00.533Z,-0.22
2022-11-22T04:21:35.688Z,-0.21
2022-11-22T04:24:22.693Z,-0.25
2022-11-22T04:26:49.393Z,-0.17
2022-11-22T04:29:17.336Z,-0.14
2022-11-22T04:31:59.694Z,-0.22
2022-11-22T04:34:26.628Z,-0.10
2022-11-22T04:36:53.310Z,-0.07
2022-11-22T04:39:23.502Z,-0.07
2022-11-22T04:42:12.596Z,-0.02
2022-11-22T04:44:42.377Z,-0.03
2022-11-22T04:47:11.145Z,0.01
2022-11-22T04:49:38.196Z,0.02
2022-11-22T04:52:21.056Z,0.02
2022-11-22T04:54:47.745Z,0.08
2022-11-22T04:57:14.447Z,0.11
2022-11-22T04:59:41.104Z,0.09
2022-11-22T05:02:07.914Z,0.11
2022-11-22T05:04:34.638Z,0.13
2022-11-22T05:07:02.228Z,0.15
2022-11-22T05:09:29.086Z,0.14
2022-11-22T05:11:55.995Z,0.14
2022-11-22T05:14:22.652Z,0.19
2022-11-22T05:16:49.360Z,0.23
2022-11-22T05:19:16.094Z,0.23
2022-11-22T05:21:42.942Z,0.22
2022-11-22T05:24:09.652Z,0.26
2022-11-22T05:26:37.048Z,0.25
2022-11-22T05:29:05.899Z,0.24
2022-11-22T05:31:34.122Z,0.25
2022-11-22T05:34:01.364Z,0.24
2022-11-22T05:36:31.087Z,0.24
2022-11-22T05:38:57.741Z,0.25
2022-11-22T05:41:24.764Z,0.23
2022-11-22T05:43:51.337Z,0.23
2022-11-22T05:46:24.897Z,0.28
2022-11-22T05:48:53.219Z,0.29
2022-11-22T05:51:22.092Z,0.30
2022-11-22T05:53:48.742Z,0.29
2022-11-22T05:56:18.505Z,0.33
2022-11-22T05:58:45.654Z,0.33
2022-11-22T06:01:21.536Z,0.40
2022-11-22T06:03:49.123Z,0.39
2022-11-22T06:06:16.339Z,0.41
2022-11-22T06:08:47.861Z,0.44
2022-11-22T06:11:20.944Z,0.44
2022-11-22T06:13:49.968Z,0.42
2022-11-22T06:16:17.219Z,0.43
2022-11-22T06:18:44.440Z,0.46
2022-11-22T06:21:13.854Z,0.47
2022-11-22T06:23:40.522Z,0.44
2022-11-22T06:26:10.131Z,0.44
2022-11-22T06:28:38.579Z,0.47
2022-11-22T06:31:08.120Z,0.46
2022-11-22T06:33:34.952Z,0.51
2022-11-22T06:36:04.035Z,0.52
2022-11-22T06:38:30.687Z,0.57
2022-11-22T06:41:01.509Z,0.56
2022-11-22T06:43:29.840Z,0.57
2022-11-22T06:45:58.987Z,0.53
2022-11-22T06:48:26.916Z,0.56
2022-11-22T06:51:00.422Z,0.58
2022-11-22T06:53:46.168Z,0.55
2022-11-22T06:56:17.220Z,0.61
2022-11-22T06:58:45.124Z,0.56
2022-11-22T07:01:15.126Z,0.60
2022-11-22T07:03:42.918Z,0.61
2022-11-22T07:06:11.733Z,0.75
2022-11-22T07:08:39.384Z,0.73
2022-11-22T07:11:09.546Z,0.81
2022-11-22T07:13:36.951Z,0.81
2022-11-22T07:16:06.116Z,0.82
2022-11-22T07:18:33.248Z,0.75
2022-11-22T07:21:05.684Z,0.75
2022-11-22T07:23:34.935Z,0.77
2022-11-22T07:26:01.574Z,0.74
2022-11-22T07:28:28.316Z,0.74
2022-11-22T07:31:00.437Z,0.77
2022-11-22T07:33:27.231Z,0.79
2022-11-22T07:35:54.274Z,0.78
2022-11-22T07:38:21.253Z,0.80
2022-11-22T07:40:48.036Z,0.80
2022-11-22T07:43:15.311Z,0.80
2022-11-22T07:45:41.891Z,0.80
2022-11-22T07:48:08.555Z,0.85
2022-11-22T07:50:35.148Z,0.85
2022-11-22T07:53:01.775Z,0.86
2022-11-22T07:55:28.752Z,0.82
2022-11-22T07:57:58.746Z,0.87
2022-11-22T08:00:25.859Z,0.92
2022-11-22T08:02:52.614Z,0.89
2022-11-22T08:05:19.775Z,0.86
2022-11-22T08:07:48.359Z,0.95
2022-11-22T08:10:15.166Z,1.02
2022-11-22T08:12:41.993Z,1.02
2022-11-22T08:15:10.245Z,0.99
2022-11-22T08:17:38.257Z,0.97
2022-11-22T08:20:06.512Z,1.05
2022-11-22T08:22:33.091Z,1.07
2022-11-22T08:24:59.736Z,1.03
2022-11-22T08:27:26.353Z,1.14
2022-11-22T08:29:53.149Z,0.98
2022-11-22T08:32:19.850Z,0.97
2022-11-22T08:34:47.427Z,0.93
2022-11-22T08:37:14.328Z,0.97
2022-11-22T08:39:44.187Z,0.95
2022-11-22T08:42:10.814Z,0.92
2022-11-22T08:44:37.417Z,0.94
2022-11-22T08:47:04.056Z,0.94
2022-11-22T08:49:30.766Z,0.96
2022-11-22T08:51:57.473Z,0.97
2022-11-22T08:54:24.454Z,0.98
2022-11-22T08:56:51.146Z,0.99
2022-11-22T08:59:17.837Z,1.19
2022-11-22T09:01:44.804Z,1.31
2022-11-22T09:04:12.829Z,1.28
2022-11-22T09:09:41.782Z,1.12
2022-11-22T09:12:08.433Z,1.08
2022-11-22T09:14:35.268Z,1.06
2022-11-22T09:17:01.949Z,1.02
2022-11-22T09:19:28.717Z,0.98
2022-11-22T09:21:55.547Z,0.97
2022-11-22T09:24:22.208Z,0.99
2022-11-22T09:26:48.938Z,0.99
2022-11-22T09:29:16.055Z,1.02
2022-11-22T09:31:43.048Z,1.03
2022-11-22T09:34:09.699Z,1.04
2022-11-22T09:36:36.573Z,1.05
2022-11-22T09:39:03.585Z,1.07
2022-11-22T09:42:00.752Z,1.09
2022-11-22T09:44:57.884Z,1.12
2022-11-22T09:47:39.720Z,1.14
2022-11-22T09:50:17.466Z,1.13
2022-11-22T09:53:04.552Z,1.21
2022-11-22T09:55:39.522Z,1.20
2022-11-22T09:58:23.672Z,1.22
2022-11-22T10:00:52.390Z,1.24
2022-11-22T10:03:36.285Z,1.27
2022-11-22T10:06:08.432Z,1.28
2022-11-22T10:08:35.601Z,1.26
2022-11-22T10:11:06.139Z,1.28
2022-11-22T10:13:41.226Z,1.30
2022-11-22T10:16:14.338Z,1.32
2022-11-22T10:19:00.837Z,1.33
2022-11-22T10:21:27.650Z,1.36
2022-11-22T10:23:54.392Z,1.40
2022-11-22T10:26:32.854Z,1.42
2022-11-22T10:29:34.712Z,1.43
2022-11-22T10:32:13.543Z,1.44
2022-11-22T10:34:55.553Z,1.46
2022-11-22T10:37:37.533Z,1.46
2022-11-22T10:40:21.000Z,1.54
2022-11-22T10:43:18.321Z,1.52
2022-11-22T10:45:53.040Z,1.52
2022-11-22T10:48:19.602Z,1.52
2022-11-22T10:51:08.202Z,1.53
2022-11-22T10:54:05.322Z,1.52
2022-11-22T10:56:50.283Z,1.54
2022-11-22T10:59:17.900Z,1.59
2022-11-22T11:01:49.571Z,1.56
2022-11-22T11:04:18.226Z,1.58
2022-11-22T11:07:13.275Z,1.69
2022-11-22T11:10:09.599Z,1.65
2022-11-22T11:12:41.001Z,1.69
2022-11-22T11:15:21.733Z,1.68
2022-11-22T11:17:55.198Z,1.70
2022-11-22T11:20:28.995Z,1.72
2022-11-22T11:25:44.576Z,1.75
2022-11-22T11:28:20.320Z,1.72
2022-11-22T11:31:06.797Z,1.73
2022-11-22T11:33:37.939Z,1.75
2022-11-22T11:36:06.658Z,1.80
2022-11-22T11:38:54.624Z,1.86
2022-11-22T11:41:21.413Z,1.87
2022-11-22T11:43:49.075Z,1.89
2022-11-22T11:46:21.833Z,2.22
2022-11-22T11:48:52.099Z,1.97
2022-11-22T11:51:31.511Z,1.83
2022-11-22T11:54:01.880Z,2.15
2022-11-22T11:56:56.567Z,2.26
2022-11-22T11:59:31.484Z,2.20
2022-11-22T12:02:06.715Z,2.16
2022-11-22T12:04:36.634Z,2.21
2022-11-22T12:07:17.331Z,2.08
2022-11-22T12:09:46.257Z,2.17
2022-11-22T12:12:17.539Z,1.98
2022-11-22T12:15:10.163Z,2.04
2022-11-22T12:17:47.585Z,1.97
2022-11-22T12:20:22.150Z,2.13
2022-11-22T12:23:02.932Z,1.96
2022-11-22T12:25:36.231Z,2.07
2022-11-22T12:28:19.055Z,2.12
2022-11-22T12:30:55.662Z,2.27
2022-11-22T12:33:31.542Z,2.25
2022-11-22T12:35:59.075Z,2.24
2022-11-22T12:38:32.026Z,2.07
2022-11-22T12:41:05.827Z,2.18
2022-11-22T12:43:42.121Z,2.21
2022-11-22T12:46:19.333Z,2.05
2022-11-22T12:49:16.618Z,1.97
2022-11-22T12:51:44.248Z,1.97
2022-11-22T12:54:19.862Z,1.90
2022-11-22T12:56:51.797Z,1.80
2022-11-22T12:59:32.941Z,1.79
2022-11-22T13:02:29.125Z,1.72
2022-11-22T13:05:13.761Z,1.77
2022-11-22T13:08:10.864Z,1.76
2022-11-22T13:11:08.130Z,1.75
2022-11-22T13:13:41.228Z,1.81
2022-11-22T13:16:10.208Z,1.80
2022-11-22T13:18:45.845Z,1.95
2022-11-22T13:21:34.836Z,1.89
2022-11-22T13:24:24.086Z,1.98
2022-11-22T13:26:58.935Z,1.88
2022-11-22T13:29:28.450Z,1.95
2022-11-22T13:32:11.233Z,1.92
2022-11-22T13:34:42.314Z,1.91
2022-11-22T13:37:14.717Z,1.89
2022-11-22T13:39:50.191Z,1.83
2022-11-22T13:42:22.461Z,1.80
2022-11-22T13:45:12.094Z,1.87
2022-11-22T13:47:43.703Z,1.87
2022-11-22T13:50:45.651Z,1.83
2022-11-22T13:53:26.899Z,1.79
2022-11-22T13:55:53.575Z,1.79
2022-11-22T13:58:36.193Z,1.78
2022-11-22T14:01:02.831Z,1.78
2022-11-22T14:03:36.203Z,1.78
2022-11-22T14:06:22.173Z,1.77
2022-11-22T14:08:49.200Z,1.83
2022-11-22T14:11:40.639Z,1.80
2022-11-22T14:14:30.026Z,1.82
2022-11-22T14:17:05.039Z,1.88
2022-11-22T14:19:32.602Z,1.88
2022-11-22T14:22:11.123Z,1.88
2022-11-22T14:24:37.880Z,1.89
2022-11-22T14:27:26.875Z,1.89
2022-11-22T14:30:09.001Z,1.92
2022-11-22T14:33:06.121Z,1.98
2022-11-22T14:35:35.340Z,1.98
2022-11-22T14:38:30.625Z,1.95
2022-11-22T14:41:27.937Z,1.99
2022-11-22T14:44:13.510Z,1.93
2022-11-22T14:46:55.500Z,2.00
2022-11-22T14:49:44.067Z,1.94
2022-11-22T14:52:20.957Z,2.00
2022-11-22T14:54:52.231Z,1.96
2022-11-22T14:57:22.121Z,1.91
2022-11-22T15:00:13.844Z,1.84
2022-11-22T15:03:15.061Z,2.03
2022-11-22T15:09:11.061Z,2.00
2022-11-22T15:09:33.378Z,1.86
2022-11-22T15:12:13.384Z,1.85
2022-11-22T15:14:40.975Z,1.82
2022-11-22T15:57:28.561Z,1.76
2022-11-22T15:59:56.166Z,1.74
2022-11-22T16:02:25.912Z,1.73
2022-11-22T16:06:03.504Z,1.74
2022-11-22T16:07:49.735Z,1.77
2022-11-22T16:10:37.910Z,1.75
2022-11-22T16:13:19.900Z,1.73
2022-11-22T16:16:07.204Z,1.76
2022-11-22T16:18:34.046Z,1.75
2022-11-22T16:21:02.787Z,1.75
2022-11-22T16:23:33.856Z,1.76
2022-11-22T16:26:13.734Z,1.76
2022-11-22T16:28:40.515Z,1.80
2022-11-22T16:31:17.546Z,1.82
2022-11-22T16:33:44.961Z,1.79
2022-11-22T16:36:15.212Z,1.78
2022-11-22T16:38:43.224Z,1.81
2022-11-22T16:41:19.717Z,1.83
2022-11-22T16:43:49.367Z,1.81
2022-11-22T16:46:16.463Z,1.79
2022-11-22T16:48:44.191Z,1.78
2022-11-22T16:51:13.241Z,1.76
2022-11-22T16:53:48.981Z,1.75
2022-11-22T16:56:25.058Z,1.74
2022-11-22T16:58:54.306Z,1.75
2022-11-22T17:01:24.578Z,1.72
2022-11-22T17:03:55.144Z,1.75
2022-11-22T17:06:24.448Z,1.75
2022-11-22T17:08:53.125Z,1.71
2022-11-22T17:11:22.414Z,1.69
2022-11-22T17:13:49.096Z,1.66
2022-11-22T17:16:17.955Z,1.61
2022-11-22T17:18:46.247Z,1.62
2022-11-22T17:21:20.985Z,1.61
2022-11-22T17:23:49.531Z,1.64
2022-11-22T17:26:16.355Z,1.64
2022-11-22T17:28:42.989Z,1.58
2022-11-22T17:31:13.142Z,1.60
2022-11-22T17:33:39.917Z,1.61
2022-11-22T17:36:19.616Z,1.62
2022-11-22T17:38:46.229Z,1.57
2022-11-22T17:41:12.869Z,1.60
2022-11-22T17:43:39.479Z,1.64
2022-11-22T17:46:06.143Z,1.65
2022-11-22T17:48:32.772Z,1.59
2022-11-22T17:50:59.414Z,1.57
2022-11-22T17:53:26.085Z,1.46
2022-11-22T17:56:10.169Z,1.47
2022-11-22T17:58:37.956Z,1.45
2022-11-22T18:01:08.513Z,1.36
2022-11-22T18:03:35.519Z,1.43
2022-11-22T18:06:02.323Z,1.45
2022-11-22T18:08:29.591Z,1.39
2022-11-22T18:10:59.734Z,1.51
2022-11-22T18:13:28.318Z,1.40
2022-11-22T18:16:02.998Z,1.40
2022-11-22T18:18:55.851Z,1.36
2022-11-22T18:21:17.818Z,1.36
2022-11-22T18:23:46.380Z,1.40
2022-11-22T18:29:35.665Z,1.30
2022-11-22T18:31:54.293Z,1.26
2022-11-22T18:34:23.117Z,1.23
2022-11-22T18:36:55.922Z,1.26
2022-11-22T18:39:26.138Z,1.24
2022-11-22T18:41:52.811Z,1.30
2022-11-22T18:44:19.604Z,1.33
2022-11-22T18:46:46.925Z,1.31
2022-11-22T18:49:13.579Z,1.33
2022-11-22T18:51:40.228Z,1.28
2022-11-22T18:54:09.958Z,1.26
2022-11-22T18:56:40.703Z,1.21
2022-11-22T18:59:09.992Z,1.22
2022-11-22T19:01:38.651Z,1.20
2022-11-22T19:04:05.583Z,1.19
2022-11-22T19:06:32.267Z,1.20
2022-11-22T19:08:59.025Z,1.23
2022-11-22T19:11:26.079Z,1.21
2022-11-22T19:13:53.069Z,1.26
2022-11-22T19:16:22.318Z,1.26
2022-11-22T19:18:49.748Z,1.25
2022-11-22T19:21:19.374Z,1.22
2022-11-22T19:23:46.950Z,1.16
2022-11-22T19:26:16.645Z,1.12
2022-11-22T19:28:43.314Z,1.10
2022-11-22T19:31:13.741Z,1.11
2022-11-22T19:33:40.957Z,1.12
2022-11-22T19:36:14.428Z,1.11
2022-11-22T19:38:42.649Z,1.11
2022-11-22T19:41:11.400Z,1.12
2022-11-22T19:43:38.519Z,1.20
2022-11-22T19:46:06.185Z,1.23
2022-11-22T19:48:35.771Z,1.25
2022-11-22T19:51:12.005Z,1.22
2022-11-22T19:53:39.049Z,1.20
2022-11-22T19:56:11.921Z,1.22
2022-11-22T19:58:38.887Z,1.23
2022-11-22T20:01:08.406Z,1.21
2022-11-22T20:03:36.234Z,1.19
2022-11-22T20:06:04.572Z,1.16
2022-11-22T20:08:31.774Z,1.16
2022-11-22T20:11:01.377Z,1.18
2022-11-22T20:13:28.125Z,1.13
2022-11-22T20:15:55.682Z,1.11
2022-11-22T20:18:22.297Z,1.07
2022-11-22T20:20:48.922Z,1.10
2022-11-22T20:23:15.589Z,1.15
2022-11-22T20:25:42.200Z,1.06
2022-11-22T20:28:08.819Z,1.05
2022-11-22T20:30:35.465Z,1.08
2022-11-22T20:33:02.502Z,1.03
2022-11-22T20:35:29.175Z,1.05
2022-11-22T20:37:55.788Z,1.05
2022-11-22T20:40:22.413Z,1.06
2022-11-22T20:42:52.333Z,0.96
2022-11-22T20:45:19.066Z,1.00
2022-11-22T20:47:45.694Z,0.98
2022-11-22T20:50:12.295Z,0.93
2022-11-22T20:52:38.953Z,0.87
2022-11-22T20:55:06.417Z,0.98
2022-11-22T20:57:34.070Z,0.96
2022-11-22T21:00:01.748Z,0.96
2022-11-22T21:02:28.408Z,0.97
2022-11-22T21:04:55.110Z,0.99
2022-11-22T21:07:21.937Z,1.00
2022-11-22T21:09:48.632Z,0.97
2022-11-22T21:12:15.294Z,0.93
2022-11-22T21:14:42.007Z,0.96
2022-11-22T21:17:37.115Z,0.94
2022-11-22T21:19:55.212Z,0.92
2022-11-22T21:22:21.881Z,0.95
2022-11-22T21:24:48.551Z,0.88
2022-11-22T21:27:15.197Z,0.91
2022-11-22T21:29:41.849Z,0.90
2022-11-22T21:32:08.567Z,0.90
2022-11-22T21:34:35.670Z,1.03
2022-11-22T21:37:02.289Z,0.98
2022-11-22T21:39:28.915Z,0.97
2022-11-22T21:41:55.638Z,1.05
2022-11-22T21:44:22.249Z,1.00
2022-11-22T21:46:48.899Z,0.90
2022-11-22T21:49:15.534Z,0.94
2022-11-22T21:51:42.376Z,0.93
2022-11-22T21:54:09.101Z,0.90
2022-11-22T21:56:35.776Z,0.93
2022-11-22T21:59:02.460Z,0.90
2022-11-22T22:01:29.296Z,0.91
2022-11-22T22:03:56.073Z,0.90
2022-11-22T22:06:30.192Z,0.90
2022-11-22T22:08:56.934Z,0.93
2022-11-22T22:11:23.897Z,0.89
2022-11-22T22:13:54.272Z,0.87
2022-11-22T22:16:23.838Z,0.87
2022-11-22T22:18:50.471Z,0.88
2022-11-22T22:21:18.423Z,0.89
2022-11-22T22:23:45.800Z,0.88
2022-11-22T22:26:15.500Z,0.84
2022-11-22T22:28:42.902Z,0.86
2022-11-22T22:31:14.611Z,0.89
2022-11-22T22:33:41.742Z,0.90
2022-11-22T22:36:10.448Z,1.07
2022-11-22T22:38:38.482Z,1.10
2022-11-22T22:41:06.316Z,1.03
2022-11-22T22:43:35.594Z,1.17
2022-11-22T22:46:18.940Z,1.08
2022-11-22T22:48:47.054Z,1.26
2022-11-22T22:51:17.762Z,1.03
2022-11-22T22:53:45.238Z,0.95
2022-11-22T22:56:13.207Z,1.02
2022-11-22T22:58:40.585Z,0.98
2022-11-22T23:01:18.526Z,1.01
2022-11-22T23:03:49.799Z,0.97
2022-11-22T23:06:17.350Z,0.98
2022-11-22T23:08:46.711Z,1.00
2022-11-22T23:11:14.132Z,0.92
2022-11-22T23:13:43.082Z,0.96
2022-11-22T23:16:12.533Z,0.97
2022-11-22T23:18:41.739Z,1.01
2022-11-22T23:21:12.073Z,0.98
2022-11-22T23:23:39.155Z,1.03
2022-11-22T23:26:09.508Z,1.07
2022-11-22T23:28:36.173Z,1.04
2022-11-22T23:31:09.327Z,1.02
2022-11-22T23:33:36.226Z,1.05
2022-11-22T23:36:05.482Z,1.08
2022-11-22T23:38:32.833Z,1.06
2022-11-22T23:40:59.842Z,1.07
2022-11-22T23:43:26.624Z,1.06
2022-11-22T23:45:53.382Z,1.04
2022-11-22T23:48:20.046Z,1.05
2022-11-22T23:50:46.698Z,1.11
2022-11-22T23:53:13.304Z,1.16
2022-11-22T23:55:39.932Z,1.10
2022-11-22T23:58:06.571Z,1.18
